Terminal Aerodrome Forecast
Issued by NWS

Home | Current Version | Previous Version | Text Only | Print | Product List | Glossary On
Versions: 1 2 3 4 5 6 7 8 9 10 11 12 13 14 15 16 17 18 19 20
000
FTUS42 KGSP 221700
TAFGMU
TAF
KGMU 221739Z 2218/2318 05007KT P6SM VCTS SCT020 BKN040CB
      TEMPO 2218/2222 5SM -SHRA OVC020
     FM230300 00000KT P6SM BKN029
     FM230500 00000KT P6SM BKN020
     FM230900 00000KT 5SM BR BKN010
     FM231400 00000KT 5SM BR BKN030
     FM231600 24004KT P6SM BKN035=

USA.gov is the U.S. government's official web portal to all federal, state and local government web resources and services.